Hauptseite
METAR-TAF:

METAR-TAF

Flughäfen :

Pond Inlet, Nunavut, Kanada

Breite: 72-42N, Länge: 077-58W, Höhe: 59 m

Beobachtung

Neuester Wetterbericht von vor 51 Minuten, um 03:00 UTC
Wind 8 kt aus Süd
Temperatur -2°C
Luftfeuchtigkeit 80%
Luftdruck 1017 hPa
Sichtweite: 14.5 km
Geschlossene Wolkendecke in der Höhe von 5000 ft

METAR: CYIO 190300Z AUTO 17008KT 9SM OVC050 M02/M05 A3002 RMK SLP172

Zeit: 23:51 (03:51 UTC)

Prognose

Neuester Wetterbericht von vor 3 Stunden und 13 Minuten, um 00:38 UTC
Gültige Prognose vom 19 um 01 UTC bis 19 um 13 UTC
Wind 3 kt aus unterschiedlichen Richtungen
Sichtweite: 10 km
Aufgelockert bewölkt in der Höhe von 4000 ft
Durchbrochene Bewölkung in der Höhe von 8000 ft
Durchbrochene Bewölkung in der Höhe von 25000 ft

TAF: CYIO 190038Z 1901/1913 VRB03KT P6SM SCT040 BKN080 BKN250 RMK FCST BASED ON AUTO OBS. NXT FCST BY 190700Z

Wetterbeobachtungen und Prognosen von mehr als 4000 Flughäfen (METAR und TAF Bericht).

Die verfügbaren Stationen werden durch gelbe und rote Markierungen auf der Karte dargestellt.

Führen Sie die Maus auf sie, um den Namen der Station zu sehen.

Darauf klicken, um die Beobachtung von Wetterbeobachtungen und Prognosen zu sehen.

Um die Karte zu ändern : klicken Sie auf den grünen Tasten mit einem schwarzen Kreuz Zum Vergrößern, auf den grünen Button mit einem Gedankenstrich zu verkleinern, oder auf die grünen Pfeile für benachbarte Karten.


METAR-TAF: